sensor_id;sensor_type;location;lat;lon;timestamp;P1;durP1;ratioP1;P2;durP2;ratioP2
12535;SDS011;6334;48.696;2.114;2022-10-04T00:01:44;12.60;;;8.10;;
12535;SDS011;6334;48.696;2.114;2022-10-04T00:06:56;11.83;;;8.10;;
12535;SDS011;6334;48.696;2.114;2022-10-04T00:09:35;12.40;;;8.53;;
12535;SDS011;6334;48.696;2.114;2022-10-04T00:12:16;13.40;;;9.10;;
12535;SDS011;6334;48.696;2.114;2022-10-04T00:14:46;14.13;;;9.80;;
12535;SDS011;6334;48.696;2.114;2022-10-04T00:17:24;13.80;;;9.17;;
12535;SDS011;6334;48.696;2.114;2022-10-04T00:19:56;13.03;;;8.90;;
12535;SDS011;6334;48.696;2.114;2022-10-04T00:22:27;14.27;;;8.87;;
12535;SDS011;6334;48.696;2.114;2022-10-04T00:25:02;14.67;;;8.87;;
12535;SDS011;6334;48.696;2.114;2022-10-04T00:27:30;14.70;;;10.03;;
12535;SDS011;6334;48.696;2.114;2022-10-04T00:38:01;11.63;;;8.27;;
12535;SDS011;6334;48.696;2.114;2022-10-04T00:40:32;13.57;;;8.90;;
12535;SDS011;6334;48.696;2.114;2022-10-04T00:43:03;14.20;;;8.37;;
12535;SDS011;6334;48.696;2.114;2022-10-04T00:45:35;12.93;;;8.60;;
12535;SDS011;6334;48.696;2.114;2022-10-04T00:54:04;12.33;;;7.53;;
12535;SDS011;6334;48.696;2.114;2022-10-04T00:56:48;12.17;;;7.70;;
12535;SDS011;6334;48.696;2.114;2022-10-04T01:02:20;12.60;;;8.87;;
12535;SDS011;6334;48.696;2.114;2022-10-04T01:04:51;12.87;;;8.67;;
12535;SDS011;6334;48.696;2.114;2022-10-04T01:07:22;13.87;;;9.07;;
12535;SDS011;6334;48.696;2.114;2022-10-04T01:10:00;12.57;;;8.73;;
12535;SDS011;6334;48.696;2.114;2022-10-04T01:12:43;13.37;;;8.73;;
12535;SDS011;6334;48.696;2.114;2022-10-04T01:20:38;13.90;;;8.77;;
12535;SDS011;6334;48.696;2.114;2022-10-04T01:29:07;12.07;;;7.87;;
12535;SDS011;6334;48.696;2.114;2022-10-04T01:31:43;14.03;;;8.27;;
12535;SDS011;6334;48.696;2.114;2022-10-04T01:34:13;12.47;;;8.57;;
12535;SDS011;6334;48.696;2.114;2022-10-04T01:36:43;14.93;;;8.60;;
12535;SDS011;6334;48.696;2.114;2022-10-04T01:39:14;12.87;;;8.73;;
12535;SDS011;6334;48.696;2.114;2022-10-04T01:41:48;13.33;;;8.93;;
12535;SDS011;6334;48.696;2.114;2022-10-04T01:44:30;14.73;;;9.03;;
12535;SDS011;6334;48.696;2.114;2022-10-04T01:47:13;12.40;;;8.17;;
12535;SDS011;6334;48.696;2.114;2022-10-04T01:49:42;11.90;;;8.20;;
12535;SDS011;6334;48.696;2.114;2022-10-04T01:52:23;11.93;;;7.80;;
12535;SDS011;6334;48.696;2.114;2022-10-04T01:55:04;12.97;;;7.80;;
12535;SDS011;6334;48.696;2.114;2022-10-04T01:57:37;11.63;;;7.70;;
12535;SDS011;6334;48.696;2.114;2022-10-04T02:00:07;11.37;;;7.47;;
12535;SDS011;6334;48.696;2.114;2022-10-04T02:02:41;11.10;;;7.37;;
12535;SDS011;6334;48.696;2.114;2022-10-04T02:05:15;12.83;;;7.30;;
12535;SDS011;6334;48.696;2.114;2022-10-04T02:07:40;11.37;;;7.80;;
12535;SDS011;6334;48.696;2.114;2022-10-04T02:10:14;11.87;;;7.93;;
12535;SDS011;6334;48.696;2.114;2022-10-04T02:12:42;14.27;;;8.10;;
12535;SDS011;6334;48.696;2.114;2022-10-04T02:15:14;13.13;;;8.17;;
12535;SDS011;6334;48.696;2.114;2022-10-04T02:17:44;11.93;;;8.03;;
12535;SDS011;6334;48.696;2.114;2022-10-04T02:20:20;11.90;;;7.63;;
12535;SDS011;6334;48.696;2.114;2022-10-04T02:22:50;13.70;;;7.83;;
12535;SDS011;6334;48.696;2.114;2022-10-04T02:25:25;12.10;;;7.87;;
12535;SDS011;6334;48.696;2.114;2022-10-04T02:27:55;11.33;;;8.03;;
12535;SDS011;6334;48.696;2.114;2022-10-04T02:30:26;12.00;;;7.73;;
12535;SDS011;6334;48.696;2.114;2022-10-04T02:32:56;13.73;;;8.40;;
12535;SDS011;6334;48.696;2.114;2022-10-04T02:35:29;14.17;;;8.20;;
12535;SDS011;6334;48.696;2.114;2022-10-04T02:38:02;13.57;;;8.40;;
12535;SDS011;6334;48.696;2.114;2022-10-04T02:40:36;11.97;;;8.23;;
12535;SDS011;6334;48.696;2.114;2022-10-04T02:43:08;11.53;;;8.20;;
12535;SDS011;6334;48.696;2.114;2022-10-04T02:45:53;12.50;;;7.87;;
12535;SDS011;6334;48.696;2.114;2022-10-04T02:48:42;9.27;;;5.87;;
12535;SDS011;6334;48.696;2.114;2022-10-04T02:54:06;10.43;;;6.20;;
12535;SDS011;6334;48.696;2.114;2022-10-04T02:56:49;12.93;;;7.30;;
12535;SDS011;6334;48.696;2.114;2022-10-04T02:59:16;11.23;;;7.13;;
12535;SDS011;6334;48.696;2.114;2022-10-04T03:04:27;9.23;;;6.30;;
12535;SDS011;6334;48.696;2.114;2022-10-04T03:06:53;11.77;;;7.13;;
12535;SDS011;6334;48.696;2.114;2022-10-04T03:09:24;10.37;;;7.33;;
12535;SDS011;6334;48.696;2.114;2022-10-04T03:11:54;11.83;;;7.50;;
12535;SDS011;6334;48.696;2.114;2022-10-04T03:14:25;12.23;;;7.53;;
12535;SDS011;6334;48.696;2.114;2022-10-04T03:16:56;12.73;;;7.70;;
12535;SDS011;6334;48.696;2.114;2022-10-04T03:19:26;11.27;;;7.63;;
12535;SDS011;6334;48.696;2.114;2022-10-04T03:21:57;12.80;;;7.73;;
12535;SDS011;6334;48.696;2.114;2022-10-04T03:24:30;12.37;;;7.73;;
12535;SDS011;6334;48.696;2.114;2022-10-04T03:26:57;11.77;;;8.17;;
12535;SDS011;6334;48.696;2.114;2022-10-04T03:29:27;11.63;;;7.97;;
12535;SDS011;6334;48.696;2.114;2022-10-04T03:31:57;10.83;;;7.40;;
12535;SDS011;6334;48.696;2.114;2022-10-04T03:34:34;10.27;;;6.40;;
12535;SDS011;6334;48.696;2.114;2022-10-04T03:37:01;8.70;;;6.03;;
12535;SDS011;6334;48.696;2.114;2022-10-04T03:39:31;10.57;;;7.20;;
12535;SDS011;6334;48.696;2.114;2022-10-04T03:42:01;11.57;;;7.33;;
12535;SDS011;6334;48.696;2.114;2022-10-04T03:44:30;9.57;;;6.40;;
12535;SDS011;6334;48.696;2.114;2022-10-04T03:47:01;9.10;;;6.40;;
12535;SDS011;6334;48.696;2.114;2022-10-04T03:49:32;10.30;;;6.83;;
12535;SDS011;6334;48.696;2.114;2022-10-04T03:52:01;13.83;;;7.63;;
12535;SDS011;6334;48.696;2.114;2022-10-04T03:54:32;12.70;;;7.60;;
12535;SDS011;6334;48.696;2.114;2022-10-04T03:57:03;10.40;;;7.00;;
12535;SDS011;6334;48.696;2.114;2022-10-04T03:59:33;10.23;;;7.10;;
12535;SDS011;6334;48.696;2.114;2022-10-04T04:07:44;7.83;;;5.50;;
12535;SDS011;6334;48.696;2.114;2022-10-04T04:10:30;8.50;;;5.83;;
12535;SDS011;6334;48.696;2.114;2022-10-04T04:15:48;8.13;;;5.67;;
12535;SDS011;6334;48.696;2.114;2022-10-04T04:18:19;8.70;;;5.97;;
12535;SDS011;6334;48.696;2.114;2022-10-04T04:20:49;9.17;;;6.33;;
12535;SDS011;6334;48.696;2.114;2022-10-04T04:24:04;9.40;;;6.37;;
12535;SDS011;6334;48.696;2.114;2022-10-04T04:31:50;7.63;;;5.87;;
12535;SDS011;6334;48.696;2.114;2022-10-04T04:34:27;7.70;;;5.80;;
12535;SDS011;6334;48.696;2.114;2022-10-04T04:37:01;12.37;;;6.60;;
12535;SDS011;6334;48.696;2.114;2022-10-04T04:39:28;11.13;;;7.13;;
12535;SDS011;6334;48.696;2.114;2022-10-04T04:42:01;8.27;;;6.00;;
12535;SDS011;6334;48.696;2.114;2022-10-04T04:44:53;8.60;;;5.87;;
12535;SDS011;6334;48.696;2.114;2022-10-04T04:47:27;8.73;;;5.53;;
12535;SDS011;6334;48.696;2.114;2022-10-04T04:49:57;9.53;;;7.03;;
12535;SDS011;6334;48.696;2.114;2022-10-04T04:52:27;12.13;;;7.00;;
12535;SDS011;6334;48.696;2.114;2022-10-04T04:54:57;12.13;;;7.07;;
12535;SDS011;6334;48.696;2.114;2022-10-04T04:57:30;13.67;;;8.50;;
12535;SDS011;6334;48.696;2.114;2022-10-04T04:59:59;13.40;;;8.60;;
12535;SDS011;6334;48.696;2.114;2022-10-04T05:02:32;14.77;;;9.17;;
12535;SDS011;6334;48.696;2.114;2022-10-04T05:05:13;13.73;;;8.77;;
12535;SDS011;6334;48.696;2.114;2022-10-04T05:07:39;9.83;;;6.53;;
12535;SDS011;6334;48.696;2.114;2022-10-04T05:10:24;8.87;;;5.97;;
12535;SDS011;6334;48.696;2.114;2022-10-04T05:12:49;11.60;;;5.53;;
12535;SDS011;6334;48.696;2.114;2022-10-04T05:15:20;7.47;;;5.50;;
12535;SDS011;6334;48.696;2.114;2022-10-04T05:17:50;11.17;;;6.10;;
12535;SDS011;6334;48.696;2.114;2022-10-04T05:20:21;7.50;;;5.57;;
12535;SDS011;6334;48.696;2.114;2022-10-04T05:22:51;9.77;;;5.43;;
12535;SDS011;6334;48.696;2.114;2022-10-04T05:25:30;8.07;;;5.70;;
12535;SDS011;6334;48.696;2.114;2022-10-04T05:27:58;6.97;;;5.23;;
12535;SDS011;6334;48.696;2.114;2022-10-04T05:33:09;8.23;;;5.43;;
12535;SDS011;6334;48.696;2.114;2022-10-04T05:38:39;7.80;;;5.13;;
12535;SDS011;6334;48.696;2.114;2022-10-04T05:43:43;8.00;;;5.30;;
12535;SDS011;6334;48.696;2.114;2022-10-04T05:48:50;7.70;;;5.10;;
12535;SDS011;6334;48.696;2.114;2022-10-04T05:51:22;7.10;;;5.00;;
12535;SDS011;6334;48.696;2.114;2022-10-04T05:53:56;6.67;;;5.00;;
12535;SDS011;6334;48.696;2.114;2022-10-04T05:59:26;5.50;;;4.70;;
12535;SDS011;6334;48.696;2.114;2022-10-04T06:07:39;6.63;;;4.90;;
12535;SDS011;6334;48.696;2.114;2022-10-04T06:10:40;6.17;;;4.90;;
12535;SDS011;6334;48.696;2.114;2022-10-04T06:13:28;5.90;;;4.93;;
12535;SDS011;6334;48.696;2.114;2022-10-04T06:18:34;27.00;;;17.30;;
12535;SDS011;6334;48.696;2.114;2022-10-04T06:21:20;49.57;;;32.97;;
12535;SDS011;6334;48.696;2.114;2022-10-04T06:26:29;129.07;;;82.50;;
12535;SDS011;6334;48.696;2.114;2022-10-04T06:29:10;104.80;;;62.13;;
12535;SDS011;6334;48.696;2.114;2022-10-04T06:34:16;20.63;;;13.93;;
12535;SDS011;6334;48.696;2.114;2022-10-04T06:42:35;39.37;;;23.30;;
12535;SDS011;6334;48.696;2.114;2022-10-04T06:45:25;39.77;;;25.30;;
12535;SDS011;6334;48.696;2.114;2022-10-04T06:48:15;61.23;;;43.23;;
12535;SDS011;6334;48.696;2.114;2022-10-04T06:50:50;27.70;;;20.40;;
12535;SDS011;6334;48.696;2.114;2022-10-04T06:53:38;23.27;;;16.10;;
12535;SDS011;6334;48.696;2.114;2022-10-04T06:56:12;29.53;;;20.97;;
12535;SDS011;6334;48.696;2.114;2022-10-04T06:58:46;19.33;;;13.53;;
12535;SDS011;6334;48.696;2.114;2022-10-04T07:01:32;16.00;;;10.43;;
12535;SDS011;6334;48.696;2.114;2022-10-04T07:04:10;19.30;;;9.83;;
12535;SDS011;6334;48.696;2.114;2022-10-04T07:06:40;14.50;;;9.40;;
12535;SDS011;6334;48.696;2.114;2022-10-04T07:09:19;21.70;;;9.47;;
12535;SDS011;6334;48.696;2.114;2022-10-04T07:11:54;16.07;;;9.27;;
12535;SDS011;6334;48.696;2.114;2022-10-04T07:14:30;17.20;;;8.07;;
12535;SDS011;6334;48.696;2.114;2022-10-04T07:17:01;11.67;;;7.27;;
12535;SDS011;6334;48.696;2.114;2022-10-04T07:19:35;13.13;;;8.57;;
12535;SDS011;6334;48.696;2.114;2022-10-04T07:33:22;18.23;;;9.97;;
12535;SDS011;6334;48.696;2.114;2022-10-04T07:35:59;16.03;;;10.03;;
12535;SDS011;6334;48.696;2.114;2022-10-04T07:38:35;11.53;;;7.00;;
12535;SDS011;6334;48.696;2.114;2022-10-04T07:41:11;10.97;;;7.03;;
12535;SDS011;6334;48.696;2.114;2022-10-04T07:43:48;10.97;;;6.97;;
12535;SDS011;6334;48.696;2.114;2022-10-04T07:48:48;11.97;;;6.97;;
12535;SDS011;6334;48.696;2.114;2022-10-04T07:51:41;14.60;;;6.53;;
12535;SDS011;6334;48.696;2.114;2022-10-04T07:54:17;9.57;;;6.13;;
12535;SDS011;6334;48.696;2.114;2022-10-04T07:57:36;10.13;;;6.47;;
12535;SDS011;6334;48.696;2.114;2022-10-04T08:02:32;9.80;;;5.77;;
12535;SDS011;6334;48.696;2.114;2022-10-04T08:10:48;9.10;;;5.80;;
12535;SDS011;6334;48.696;2.114;2022-10-04T08:15:52;8.37;;;5.83;;
12535;SDS011;6334;48.696;2.114;2022-10-04T08:20:57;11.47;;;7.43;;
12535;SDS011;6334;48.696;2.114;2022-10-04T08:26:36;10.33;;;6.33;;
12535;SDS011;6334;48.696;2.114;2022-10-04T08:46:15;11.13;;;7.03;;
12535;SDS011;6334;48.696;2.114;2022-10-04T08:57:49;9.33;;;6.43;;
12535;SDS011;6334;48.696;2.114;2022-10-04T09:03:30;9.90;;;6.47;;
12535;SDS011;6334;48.696;2.114;2022-10-04T09:09:02;10.43;;;6.93;;
12535;SDS011;6334;48.696;2.114;2022-10-04T09:20:04;10.20;;;6.63;;
12535;SDS011;6334;48.696;2.114;2022-10-04T09:22:46;11.60;;;7.20;;
12535;SDS011;6334;48.696;2.114;2022-10-04T09:28:02;11.23;;;6.90;;
12535;SDS011;6334;48.696;2.114;2022-10-04T09:33:34;12.53;;;8.83;;
12535;SDS011;6334;48.696;2.114;2022-10-04T09:41:57;13.30;;;9.50;;
12535;SDS011;6334;48.696;2.114;2022-10-04T09:44:47;15.17;;;9.33;;
12535;SDS011;6334;48.696;2.114;2022-10-04T09:47:25;13.73;;;9.00;;
12535;SDS011;6334;48.696;2.114;2022-10-04T09:52:53;13.57;;;9.00;;
12535;SDS011;6334;48.696;2.114;2022-10-04T09:55:36;13.87;;;8.73;;
12535;SDS011;6334;48.696;2.114;2022-10-04T09:58:15;11.90;;;7.63;;
12535;SDS011;6334;48.696;2.114;2022-10-04T10:01:04;13.77;;;8.03;;
12535;SDS011;6334;48.696;2.114;2022-10-04T10:09:33;12.97;;;8.00;;
12535;SDS011;6334;48.696;2.114;2022-10-04T10:12:55;11.53;;;7.93;;
12535;SDS011;6334;48.696;2.114;2022-10-04T10:15:44;11.37;;;7.23;;
12535;SDS011;6334;48.696;2.114;2022-10-04T10:18:23;7.70;;;5.50;;
12535;SDS011;6334;48.696;2.114;2022-10-04T10:29:18;7.23;;;5.03;;
12535;SDS011;6334;48.696;2.114;2022-10-04T10:43:18;8.40;;;5.00;;
12535;SDS011;6334;48.696;2.114;2022-10-04T10:48:46;9.50;;;5.30;;
12535;SDS011;6334;48.696;2.114;2022-10-04T10:57:03;7.10;;;5.13;;
12535;SDS011;6334;48.696;2.114;2022-10-04T11:11:12;7.53;;;5.47;;
12535;SDS011;6334;48.696;2.114;2022-10-04T11:14:17;8.87;;;5.03;;
12535;SDS011;6334;48.696;2.114;2022-10-04T11:22:35;6.17;;;4.37;;
12535;SDS011;6334;48.696;2.114;2022-10-04T11:27:48;7.03;;;4.40;;
12535;SDS011;6334;48.696;2.114;2022-10-04T11:30:22;4.73;;;4.00;;
12535;SDS011;6334;48.696;2.114;2022-10-04T11:33:06;8.00;;;4.40;;
12535;SDS011;6334;48.696;2.114;2022-10-04T11:41:17;8.67;;;5.30;;
12535;SDS011;6334;48.696;2.114;2022-10-04T11:50:06;9.17;;;5.03;;
12535;SDS011;6334;48.696;2.114;2022-10-04T11:58:16;6.13;;;5.10;;
12535;SDS011;6334;48.696;2.114;2022-10-04T12:00:57;8.93;;;5.07;;
12535;SDS011;6334;48.696;2.114;2022-10-04T12:03:53;5.93;;;4.90;;
12535;SDS011;6334;48.696;2.114;2022-10-04T12:06:23;6.23;;;4.90;;
12535;SDS011;6334;48.696;2.114;2022-10-04T12:09:03;5.03;;;4.20;;
12535;SDS011;6334;48.696;2.114;2022-10-04T12:11:53;5.80;;;4.37;;
12535;SDS011;6334;48.696;2.114;2022-10-04T12:15:02;5.90;;;4.00;;
12535;SDS011;6334;48.696;2.114;2022-10-04T12:17:48;4.93;;;4.10;;
12535;SDS011;6334;48.696;2.114;2022-10-04T12:20:37;4.90;;;4.40;;
12535;SDS011;6334;48.696;2.114;2022-10-04T12:23:16;4.60;;;4.13;;
12535;SDS011;6334;48.696;2.114;2022-10-04T12:25:46;4.87;;;3.97;;
12535;SDS011;6334;48.696;2.114;2022-10-04T12:31:12;4.57;;;4.07;;
12535;SDS011;6334;48.696;2.114;2022-10-04T12:41:49;4.20;;;3.70;;
12535;SDS011;6334;48.696;2.114;2022-10-04T12:44:33;5.50;;;3.93;;
12535;SDS011;6334;48.696;2.114;2022-10-04T12:49:58;5.13;;;3.73;;
12535;SDS011;6334;48.696;2.114;2022-10-04T12:53:02;5.30;;;3.83;;
12535;SDS011;6334;48.696;2.114;2022-10-04T13:01:12;3.93;;;3.57;;
12535;SDS011;6334;48.696;2.114;2022-10-04T13:03:57;3.90;;;3.50;;
12535;SDS011;6334;48.696;2.114;2022-10-04T13:06:19;3.93;;;3.50;;
12535;SDS011;6334;48.696;2.114;2022-10-04T13:14:28;4.73;;;3.20;;
12535;SDS011;6334;48.696;2.114;2022-10-04T13:17:02;3.90;;;3.13;;
12535;SDS011;6334;48.696;2.114;2022-10-04T13:25:17;6.77;;;3.70;;
12535;SDS011;6334;48.696;2.114;2022-10-04T13:28:01;5.03;;;3.20;;
12535;SDS011;6334;48.696;2.114;2022-10-04T13:30:41;5.10;;;3.20;;
12535;SDS011;6334;48.696;2.114;2022-10-04T13:36:05;3.67;;;3.37;;
12535;SDS011;6334;48.696;2.114;2022-10-04T13:41:46;3.33;;;3.00;;
12535;SDS011;6334;48.696;2.114;2022-10-04T13:55:40;3.77;;;3.00;;
12535;SDS011;6334;48.696;2.114;2022-10-04T14:29:02;3.00;;;2.73;;
12535;SDS011;6334;48.696;2.114;2022-10-04T14:31:59;3.20;;;2.87;;
12535;SDS011;6334;48.696;2.114;2022-10-04T14:51:23;3.43;;;2.90;;
12535;SDS011;6334;48.696;2.114;2022-10-04T14:56:51;5.23;;;2.97;;
12535;SDS011;6334;48.696;2.114;2022-10-04T15:02:33;3.37;;;3.07;;
12535;SDS011;6334;48.696;2.114;2022-10-04T15:07:52;3.47;;;3.03;;
12535;SDS011;6334;48.696;2.114;2022-10-04T15:41:24;5.70;;;3.10;;
12535;SDS011;6334;48.696;2.114;2022-10-04T15:49:46;3.37;;;2.73;;
12535;SDS011;6334;48.696;2.114;2022-10-04T15:52:43;3.53;;;2.80;;
12535;SDS011;6334;48.696;2.114;2022-10-04T15:55:19;2.77;;;2.50;;
12535;SDS011;6334;48.696;2.114;2022-10-04T16:03:33;2.83;;;2.33;;
12535;SDS011;6334;48.696;2.114;2022-10-04T16:06:07;2.70;;;2.50;;
12535;SDS011;6334;48.696;2.114;2022-10-04T16:14:15;2.53;;;2.33;;
12535;SDS011;6334;48.696;2.114;2022-10-04T16:16:45;2.77;;;2.57;;
12535;SDS011;6334;48.696;2.114;2022-10-04T16:31:58;2.93;;;2.73;;
12535;SDS011;6334;48.696;2.114;2022-10-04T16:34:35;3.30;;;3.00;;
12535;SDS011;6334;48.696;2.114;2022-10-04T16:56:20;4.53;;;3.17;;
12535;SDS011;6334;48.696;2.114;2022-10-04T16:58:59;4.73;;;3.20;;
12535;SDS011;6334;48.696;2.114;2022-10-04T17:01:33;4.00;;;2.80;;
12535;SDS011;6334;48.696;2.114;2022-10-04T17:09:28;3.40;;;3.10;;
12535;SDS011;6334;48.696;2.114;2022-10-04T17:17:18;3.37;;;3.00;;
12535;SDS011;6334;48.696;2.114;2022-10-04T17:19:55;3.67;;;3.03;;
12535;SDS011;6334;48.696;2.114;2022-10-04T17:22:43;3.13;;;2.93;;
12535;SDS011;6334;48.696;2.114;2022-10-04T17:25:23;3.60;;;3.30;;
12535;SDS011;6334;48.696;2.114;2022-10-04T17:28:18;5.53;;;3.63;;
12535;SDS011;6334;48.696;2.114;2022-10-04T17:33:51;6.00;;;4.07;;
12535;SDS011;6334;48.696;2.114;2022-10-04T17:36:38;5.40;;;3.93;;
12535;SDS011;6334;48.696;2.114;2022-10-04T17:39:10;6.47;;;3.80;;
12535;SDS011;6334;48.696;2.114;2022-10-04T17:44:43;3.80;;;3.47;;
12535;SDS011;6334;48.696;2.114;2022-10-04T17:47:18;5.33;;;3.83;;
12535;SDS011;6334;48.696;2.114;2022-10-04T17:52:52;5.00;;;4.30;;
12535;SDS011;6334;48.696;2.114;2022-10-04T17:55:44;4.23;;;3.87;;
12535;SDS011;6334;48.696;2.114;2022-10-04T17:58:18;4.27;;;3.87;;
12535;SDS011;6334;48.696;2.114;2022-10-04T18:00:51;5.07;;;4.00;;
12535;SDS011;6334;48.696;2.114;2022-10-04T18:03:19;6.33;;;4.40;;
12535;SDS011;6334;48.696;2.114;2022-10-04T18:05:59;4.23;;;3.83;;
12535;SDS011;6334;48.696;2.114;2022-10-04T18:13:56;5.17;;;4.30;;
12535;SDS011;6334;48.696;2.114;2022-10-04T18:16:31;6.07;;;4.43;;
12535;SDS011;6334;48.696;2.114;2022-10-04T18:19:30;4.40;;;4.00;;
12535;SDS011;6334;48.696;2.114;2022-10-04T18:24:44;4.30;;;3.90;;
12535;SDS011;6334;48.696;2.114;2022-10-04T18:27:21;5.20;;;4.10;;
12535;SDS011;6334;48.696;2.114;2022-10-04T18:30:11;7.20;;;4.77;;
12535;SDS011;6334;48.696;2.114;2022-10-04T18:32:43;5.80;;;4.70;;
12535;SDS011;6334;48.696;2.114;2022-10-04T18:35:28;5.53;;;4.47;;
12535;SDS011;6334;48.696;2.114;2022-10-04T18:40:34;6.03;;;4.43;;
12535;SDS011;6334;48.696;2.114;2022-10-04T18:43:07;6.27;;;4.40;;
12535;SDS011;6334;48.696;2.114;2022-10-04T18:45:34;5.47;;;4.30;;
12535;SDS011;6334;48.696;2.114;2022-10-04T18:48:14;8.03;;;4.70;;
12535;SDS011;6334;48.696;2.114;2022-10-04T18:50:44;5.80;;;4.17;;
12535;SDS011;6334;48.696;2.114;2022-10-04T18:53:32;6.90;;;4.30;;
12535;SDS011;6334;48.696;2.114;2022-10-04T19:07:37;5.97;;;4.70;;
12535;SDS011;6334;48.696;2.114;2022-10-04T19:10:10;6.27;;;4.70;;
12535;SDS011;6334;48.696;2.114;2022-10-04T19:21:27;6.93;;;4.70;;
12535;SDS011;6334;48.696;2.114;2022-10-04T19:24:06;5.80;;;4.47;;
12535;SDS011;6334;48.696;2.114;2022-10-04T19:26:37;5.97;;;4.47;;
12535;SDS011;6334;48.696;2.114;2022-10-04T19:29:14;5.27;;;4.30;;
12535;SDS011;6334;48.696;2.114;2022-10-04T19:31:55;6.43;;;4.37;;
12535;SDS011;6334;48.696;2.114;2022-10-04T19:37:35;7.50;;;4.83;;
12535;SDS011;6334;48.696;2.114;2022-10-04T19:48:21;7.40;;;5.00;;
12535;SDS011;6334;48.696;2.114;2022-10-04T19:50:48;8.37;;;4.87;;
12535;SDS011;6334;48.696;2.114;2022-10-04T19:53:18;8.13;;;4.57;;
12535;SDS011;6334;48.696;2.114;2022-10-04T19:55:57;7.40;;;4.83;;
12535;SDS011;6334;48.696;2.114;2022-10-04T20:01:12;10.17;;;4.83;;
12535;SDS011;6334;48.696;2.114;2022-10-04T20:03:45;6.60;;;5.00;;
12535;SDS011;6334;48.696;2.114;2022-10-04T20:06:33;6.57;;;4.33;;
12535;SDS011;6334;48.696;2.114;2022-10-04T20:11:51;4.80;;;4.30;;
12535;SDS011;6334;48.696;2.114;2022-10-04T20:35:03;4.50;;;3.90;;
12535;SDS011;6334;48.696;2.114;2022-10-04T20:45:47;6.00;;;3.93;;
12535;SDS011;6334;48.696;2.114;2022-10-04T20:48:21;4.77;;;3.90;;
12535;SDS011;6334;48.696;2.114;2022-10-04T20:50:51;4.63;;;4.10;;
12535;SDS011;6334;48.696;2.114;2022-10-04T20:53:22;6.10;;;4.23;;
12535;SDS011;6334;48.696;2.114;2022-10-04T20:56:18;5.87;;;3.87;;
12535;SDS011;6334;48.696;2.114;2022-10-04T20:58:40;5.70;;;4.37;;
12535;SDS011;6334;48.696;2.114;2022-10-04T21:07:00;3.93;;;3.53;;
12535;SDS011;6334;48.696;2.114;2022-10-04T21:09:35;4.87;;;3.83;;
12535;SDS011;6334;48.696;2.114;2022-10-04T21:12:06;4.27;;;3.70;;
12535;SDS011;6334;48.696;2.114;2022-10-04T21:14:36;5.13;;;4.10;;
12535;SDS011;6334;48.696;2.114;2022-10-04T21:17:31;3.87;;;3.50;;
12535;SDS011;6334;48.696;2.114;2022-10-04T21:19:56;5.17;;;3.97;;
12535;SDS011;6334;48.696;2.114;2022-10-04T21:27:29;4.47;;;3.90;;
12535;SDS011;6334;48.696;2.114;2022-10-04T21:30:02;4.27;;;3.87;;
12535;SDS011;6334;48.696;2.114;2022-10-04T21:32:37;5.37;;;3.80;;
12535;SDS011;6334;48.696;2.114;2022-10-04T21:35:08;4.07;;;3.73;;
12535;SDS011;6334;48.696;2.114;2022-10-04T21:37:38;6.70;;;4.10;;
12535;SDS011;6334;48.696;2.114;2022-10-04T21:40:08;5.03;;;3.80;;
12535;SDS011;6334;48.696;2.114;2022-10-04T21:42:40;6.43;;;3.90;;
12535;SDS011;6334;48.696;2.114;2022-10-04T21:45:11;4.77;;;3.57;;
12535;SDS011;6334;48.696;2.114;2022-10-04T21:47:41;5.93;;;4.23;;
12535;SDS011;6334;48.696;2.114;2022-10-04T21:50:12;8.07;;;4.40;;
12535;SDS011;6334;48.696;2.114;2022-10-04T21:52:42;6.07;;;3.77;;
12535;SDS011;6334;48.696;2.114;2022-10-04T21:55:12;4.47;;;4.00;;
12535;SDS011;6334;48.696;2.114;2022-10-04T21:57:43;4.30;;;3.60;;
12535;SDS011;6334;48.696;2.114;2022-10-04T22:00:13;6.83;;;4.27;;
12535;SDS011;6334;48.696;2.114;2022-10-04T22:02:44;5.37;;;4.00;;
12535;SDS011;6334;48.696;2.114;2022-10-04T22:05:14;5.23;;;3.70;;
12535;SDS011;6334;48.696;2.114;2022-10-04T22:07:45;4.47;;;3.83;;
12535;SDS011;6334;48.696;2.114;2022-10-04T22:10:15;6.37;;;3.70;;
12535;SDS011;6334;48.696;2.114;2022-10-04T22:12:46;4.83;;;4.07;;
12535;SDS011;6334;48.696;2.114;2022-10-04T22:15:16;5.53;;;3.67;;
12535;SDS011;6334;48.696;2.114;2022-10-04T22:17:47;4.20;;;3.80;;
12535;SDS011;6334;48.696;2.114;2022-10-04T22:20:17;4.20;;;3.80;;
12535;SDS011;6334;48.696;2.114;2022-10-04T22:22:48;6.13;;;3.50;;
12535;SDS011;6334;48.696;2.114;2022-10-04T22:25:19;4.03;;;3.63;;
12535;SDS011;6334;48.696;2.114;2022-10-04T22:27:49;7.00;;;3.43;;
12535;SDS011;6334;48.696;2.114;2022-10-04T22:32:55;4.47;;;4.00;;
12535;SDS011;6334;48.696;2.114;2022-10-04T22:35:29;3.87;;;3.57;;
12535;SDS011;6334;48.696;2.114;2022-10-04T22:37:58;3.67;;;3.37;;
12535;SDS011;6334;48.696;2.114;2022-10-04T22:40:28;5.37;;;3.50;;
12535;SDS011;6334;48.696;2.114;2022-10-04T22:42:59;4.60;;;3.70;;
12535;SDS011;6334;48.696;2.114;2022-10-04T22:45:29;4.00;;;3.70;;
12535;SDS011;6334;48.696;2.114;2022-10-04T22:48:00;3.87;;;3.57;;
12535;SDS011;6334;48.696;2.114;2022-10-04T22:50:31;3.87;;;3.53;;
12535;SDS011;6334;48.696;2.114;2022-10-04T22:53:02;4.27;;;3.30;;
12535;SDS011;6334;48.696;2.114;2022-10-04T22:55:34;4.53;;;4.10;;
12535;SDS011;6334;48.696;2.114;2022-10-04T22:58:04;4.47;;;3.73;;
12535;SDS011;6334;48.696;2.114;2022-10-04T23:00:35;5.57;;;3.90;;
12535;SDS011;6334;48.696;2.114;2022-10-04T23:03:15;4.60;;;4.00;;
12535;SDS011;6334;48.696;2.114;2022-10-04T23:05:46;4.77;;;4.00;;
12535;SDS011;6334;48.696;2.114;2022-10-04T23:08:16;4.40;;;3.83;;
12535;SDS011;6334;48.696;2.114;2022-10-04T23:10:47;4.20;;;3.80;;
12535;SDS011;6334;48.696;2.114;2022-10-04T23:13:19;4.17;;;3.87;;
12535;SDS011;6334;48.696;2.114;2022-10-04T23:15:48;4.13;;;3.73;;
12535;SDS011;6334;48.696;2.114;2022-10-04T23:18:18;4.97;;;3.77;;
12535;SDS011;6334;48.696;2.114;2022-10-04T23:20:52;5.63;;;3.53;;
12535;SDS011;6334;48.696;2.114;2022-10-04T23:23:22;5.53;;;3.50;;
12535;SDS011;6334;48.696;2.114;2022-10-04T23:25:52;4.40;;;3.70;;
12535;SDS011;6334;48.696;2.114;2022-10-04T23:28:23;3.53;;;3.23;;
12535;SDS011;6334;48.696;2.114;2022-10-04T23:31:18;3.50;;;3.30;;
12535;SDS011;6334;48.696;2.114;2022-10-04T23:33:27;3.63;;;3.33;;
12535;SDS011;6334;48.696;2.114;2022-10-04T23:35:57;3.40;;;3.17;;
12535;SDS011;6334;48.696;2.114;2022-10-04T23:38:28;4.03;;;3.00;;
12535;SDS011;6334;48.696;2.114;2022-10-04T23:40:58;3.67;;;3.37;;
12535;SDS011;6334;48.696;2.114;2022-10-04T23:43:28;6.60;;;3.77;;
12535;SDS011;6334;48.696;2.114;2022-10-04T23:45:59;3.70;;;3.40;;
12535;SDS011;6334;48.696;2.114;2022-10-04T23:48:29;3.53;;;3.27;;
12535;SDS011;6334;48.696;2.114;2022-10-04T23:51:00;3.60;;;3.30;;
12535;SDS011;6334;48.696;2.114;2022-10-04T23:53:30;3.20;;;3.00;;
12535;SDS011;6334;48.696;2.114;2022-10-04T23:56:02;4.13;;;3.07;;
12535;SDS011;6334;48.696;2.114;2022-10-04T23:58:33;4.20;;;3.63;;
